sensor_id;sensor_type;location;lat;lon;timestamp;pressure;altitude;pressure_sealevel;temperature;humidity
6387;BME280;3226;42.162;24.756;2022-08-25T00:01:22;99291.06;;;21.01;100.00
6387;BME280;3226;42.162;24.756;2022-08-25T00:03:55;99310.75;;;21.14;100.00
6387;BME280;3226;42.162;24.756;2022-08-25T00:06:23;99311.97;;;21.18;100.00
6387;BME280;3226;42.162;24.756;2022-08-25T00:08:53;99305.00;;;21.10;100.00
6387;BME280;3226;42.162;24.756;2022-08-25T00:11:28;99302.78;;;21.14;100.00
6387;BME280;3226;42.162;24.756;2022-08-25T00:13:59;99309.72;;;21.08;100.00
6387;BME280;3226;42.162;24.756;2022-08-25T00:16:28;99300.53;;;21.11;100.00
6387;BME280;3226;42.162;24.756;2022-08-25T00:18:59;99310.34;;;21.23;100.00
6387;BME280;3226;42.162;24.756;2022-08-25T00:21:27;99320.56;;;21.13;100.00
6387;BME280;3226;42.162;24.756;2022-08-25T00:23:59;99327.13;;;21.11;100.00
6387;BME280;3226;42.162;24.756;2022-08-25T00:26:28;99334.47;;;20.95;100.00
6387;BME280;3226;42.162;24.756;2022-08-25T00:28:56;99323.63;;;20.90;100.00
6387;BME280;3226;42.162;24.756;2022-08-25T00:31:28;99321.38;;;21.07;100.00
6387;BME280;3226;42.162;24.756;2022-08-25T00:34:05;99299.47;;;21.05;100.00
6387;BME280;3226;42.162;24.756;2022-08-25T00:36:34;99309.94;;;21.20;100.00
6387;BME280;3226;42.162;24.756;2022-08-25T00:39:05;99306.25;;;21.21;100.00
6387;BME280;3226;42.162;24.756;2022-08-25T00:41:34;99298.44;;;21.26;100.00
6387;BME280;3226;42.162;24.756;2022-08-25T00:44:05;99302.53;;;21.35;100.00
6387;BME280;3226;42.162;24.756;2022-08-25T00:46:36;99291.88;;;21.35;98.94
6387;BME280;3226;42.162;24.756;2022-08-25T00:49:06;99280.00;;;21.38;98.14
6387;BME280;3226;42.162;24.756;2022-08-25T00:51:49;99285.94;;;21.47;97.40
6387;BME280;3226;42.162;24.756;2022-08-25T00:54:24;99289.41;;;21.47;97.34
6387;BME280;3226;42.162;24.756;2022-08-25T00:56:54;99269.78;;;21.42;96.96
6387;BME280;3226;42.162;24.756;2022-08-25T00:59:24;99274.66;;;21.51;96.70
6387;BME280;3226;42.162;24.756;2022-08-25T01:01:53;99275.69;;;21.50;96.16
6387;BME280;3226;42.162;24.756;2022-08-25T01:04:22;99278.56;;;21.49;96.83
6387;BME280;3226;42.162;24.756;2022-08-25T01:06:50;99263.63;;;21.34;96.13
6387;BME280;3226;42.162;24.756;2022-08-25T01:09:20;99261.38;;;21.38;97.17
6387;BME280;3226;42.162;24.756;2022-08-25T01:11:48;99268.34;;;21.46;96.26
6387;BME280;3226;42.162;24.756;2022-08-25T01:14:18;99268.34;;;21.46;95.68
6387;BME280;3226;42.162;24.756;2022-08-25T01:16:47;99270.59;;;21.42;95.36
6387;BME280;3226;42.162;24.756;2022-08-25T01:19:20;99263.84;;;21.40;95.65
6387;BME280;3226;42.162;24.756;2022-08-25T01:21:51;99273.84;;;21.44;95.75
6387;BME280;3226;42.162;24.756;2022-08-25T01:24:23;99274.50;;;21.33;96.92
6387;BME280;3226;42.162;24.756;2022-08-25T01:26:53;99269.78;;;21.42;95.94
6387;BME280;3226;42.162;24.756;2022-08-25T01:29:21;99267.13;;;21.28;96.21
6387;BME280;3226;42.162;24.756;2022-08-25T01:31:55;99266.69;;;21.38;94.38
6387;BME280;3226;42.162;24.756;2022-08-25T01:34:25;99266.28;;;21.34;95.07
6387;BME280;3226;42.162;24.756;2022-08-25T01:36:56;99269.34;;;21.31;95.88
6387;BME280;3226;42.162;24.756;2022-08-25T01:39:28;99267.72;;;21.30;96.45
6387;BME280;3226;42.162;24.756;2022-08-25T01:42:13;99269.56;;;21.36;95.58
6387;BME280;3226;42.162;24.756;2022-08-25T01:44:46;99270.16;;;21.45;95.07
6387;BME280;3226;42.162;24.756;2022-08-25T01:47:15;99267.91;;;21.35;95.28
6387;BME280;3226;42.162;24.756;2022-08-25T01:49:43;99212.66;;;21.04;95.48
6387;BME280;3226;42.162;24.756;2022-08-25T01:52:16;99262.41;;;21.44;95.10
6387;BME280;3226;42.162;24.756;2022-08-25T01:54:47;99271.19;;;21.37;95.81
6387;BME280;3226;42.162;24.756;2022-08-25T01:57:15;99266.28;;;21.41;95.33
6387;BME280;3226;42.162;24.756;2022-08-25T01:59:44;99265.25;;;21.35;95.83
6387;BME280;3226;42.162;24.756;2022-08-25T02:02:13;99249.91;;;21.31;94.81
6387;BME280;3226;42.162;24.756;2022-08-25T02:04:43;99258.28;;;21.41;95.14
6387;BME280;3226;42.162;24.756;2022-08-25T02:07:13;99259.72;;;21.44;94.98
6387;BME280;3226;42.162;24.756;2022-08-25T02:09:41;99248.47;;;21.35;95.53
6387;BME280;3226;42.162;24.756;2022-08-25T02:12:09;99246.00;;;21.33;95.24
6387;BME280;3226;42.162;24.756;2022-08-25T02:14:38;99237.81;;;21.28;95.93
6387;BME280;3226;42.162;24.756;2022-08-25T02:17:07;99236.56;;;21.37;95.58
6387;BME280;3226;42.162;24.756;2022-08-25T02:19:35;99237.81;;;21.28;96.11
6387;BME280;3226;42.162;24.756;2022-08-25T02:22:04;99231.47;;;21.29;95.19
6387;BME280;3226;42.162;24.756;2022-08-25T02:24:34;99227.19;;;21.21;96.12
6387;BME280;3226;42.162;24.756;2022-08-25T02:27:02;99222.06;;;21.20;96.30
6387;BME280;3226;42.162;24.756;2022-08-25T02:29:30;99224.31;;;21.30;94.55
6387;BME280;3226;42.162;24.756;2022-08-25T02:31:58;99227.41;;;21.20;93.59
6387;BME280;3226;42.162;24.756;2022-08-25T02:34:26;99226.38;;;21.14;94.33
6387;BME280;3226;42.162;24.756;2022-08-25T02:36:54;99217.38;;;21.02;95.73
6387;BME280;3226;42.162;24.756;2022-08-25T02:39:22;99222.69;;;21.15;93.55
6387;BME280;3226;42.162;24.756;2022-08-25T02:41:52;99225.16;;;20.97;93.91
6387;BME280;3226;42.162;24.756;2022-08-25T02:44:20;99230.06;;;21.20;92.31
6387;BME280;3226;42.162;24.756;2022-08-25T02:46:48;99219.63;;;21.12;92.30
6387;BME280;3226;42.162;24.756;2022-08-25T02:49:16;99214.72;;;21.08;92.23
6387;BME280;3226;42.162;24.756;2022-08-25T02:51:44;99210.41;;;21.14;91.79
6387;BME280;3226;42.162;24.756;2022-08-25T02:54:13;99203.44;;;21.20;92.19
6387;BME280;3226;42.162;24.756;2022-08-25T02:56:41;99195.22;;;21.28;89.97
6387;BME280;3226;42.162;24.756;2022-08-25T02:59:11;99189.91;;;21.28;88.72
6387;BME280;3226;42.162;24.756;2022-08-25T03:01:39;99182.13;;;21.20;87.87
6387;BME280;3226;42.162;24.756;2022-08-25T03:04:07;99188.06;;;21.22;89.05
6387;BME280;3226;42.162;24.756;2022-08-25T03:06:36;99187.28;;;21.15;87.90
6387;BME280;3226;42.162;24.756;2022-08-25T03:09:04;99177.63;;;21.20;88.52
6387;BME280;3226;42.162;24.756;2022-08-25T03:11:33;99183.34;;;21.31;88.41
6387;BME280;3226;42.162;24.756;2022-08-25T03:14:03;99179.28;;;21.21;88.05
6387;BME280;3226;42.162;24.756;2022-08-25T03:16:33;99191.16;;;21.19;88.31
6387;BME280;3226;42.162;24.756;2022-08-25T03:19:01;99189.50;;;21.11;89.06
6387;BME280;3226;42.162;24.756;2022-08-25T03:21:31;99183.34;;;21.24;88.36
6387;BME280;3226;42.162;24.756;2022-08-25T03:23:59;99183.53;;;21.29;87.99
6387;BME280;3226;42.162;24.756;2022-08-25T03:26:27;99181.31;;;21.19;88.31
6387;BME280;3226;42.162;24.756;2022-08-25T03:31:42;99172.09;;;21.15;88.94
6387;BME280;3226;42.162;24.756;2022-08-25T03:34:11;99192.38;;;21.23;88.90
6387;BME280;3226;42.162;24.756;2022-08-25T03:36:39;99209.19;;;21.17;88.82
6387;BME280;3226;42.162;24.756;2022-08-25T03:39:07;99198.53;;;21.23;88.77
6387;BME280;3226;42.162;24.756;2022-08-25T03:41:35;99205.91;;;21.15;89.68
6387;BME280;3226;42.162;24.756;2022-08-25T03:44:05;99211.84;;;21.23;89.71
6387;BME280;3226;42.162;24.756;2022-08-25T03:46:39;99212.44;;;21.12;89.91
6387;BME280;3226;42.162;24.756;2022-08-25T03:49:10;99217.16;;;21.10;89.79
6387;BME280;3226;42.162;24.756;2022-08-25T03:51:40;99213.88;;;21.01;89.84
6387;BME280;3226;42.162;24.756;2022-08-25T03:54:10;99200.41;;;20.83;90.12
6387;BME280;3226;42.162;24.756;2022-08-25T03:56:38;99217.41;;;20.88;90.06
6387;BME280;3226;42.162;24.756;2022-08-25T03:59:07;99212.47;;;20.92;89.93
6387;BME280;3226;42.162;24.756;2022-08-25T04:01:36;99210.81;;;20.91;89.61
6387;BME280;3226;42.162;24.756;2022-08-25T04:04:05;99218.19;;;20.89;89.63
6387;BME280;3226;42.162;24.756;2022-08-25T04:06:36;99217.78;;;20.99;90.56
6387;BME280;3226;42.162;24.756;2022-08-25T04:09:04;99215.75;;;20.94;89.97
6387;BME280;3226;42.162;24.756;2022-08-25T04:11:33;99215.31;;;20.97;90.71
6387;BME280;3226;42.162;24.756;2022-08-25T04:14:02;99234.38;;;20.94;89.30
6387;BME280;3226;42.162;24.756;2022-08-25T04:16:33;99224.75;;;20.79;89.42
6387;BME280;3226;42.162;24.756;2022-08-25T04:19:04;99226.41;;;20.87;89.46
6387;BME280;3226;42.162;24.756;2022-08-25T04:21:34;99230.28;;;20.91;89.98
6387;BME280;3226;42.162;24.756;2022-08-25T04:24:04;99224.75;;;21.06;88.85
6387;BME280;3226;42.162;24.756;2022-08-25T04:26:35;99228.03;;;21.08;88.41
6387;BME280;3226;42.162;24.756;2022-08-25T04:29:05;99222.47;;;21.10;87.15
6387;BME280;3226;42.162;24.756;2022-08-25T04:31:35;99209.41;;;21.08;87.87
6387;BME280;3226;42.162;24.756;2022-08-25T04:34:06;99210.81;;;21.18;87.31
6387;BME280;3226;42.162;24.756;2022-08-25T04:36:55;99222.69;;;21.29;86.22
6387;BME280;3226;42.162;24.756;2022-08-25T04:39:23;99205.63;;;21.36;84.97
6387;BME280;3226;42.162;24.756;2022-08-25T04:41:51;99214.22;;;21.45;85.08
6387;BME280;3226;42.162;24.756;2022-08-25T04:44:19;99205.00;;;21.48;84.58
6387;BME280;3226;42.162;24.756;2022-08-25T04:46:48;99206.66;;;21.49;84.59
6387;BME280;3226;42.162;24.756;2022-08-25T04:49:16;99204.97;;;21.55;82.79
6387;BME280;3226;42.162;24.756;2022-08-25T04:51:44;99197.22;;;21.53;83.65
6387;BME280;3226;42.162;24.756;2022-08-25T04:54:15;99206.63;;;21.56;84.51
6387;BME280;3226;42.162;24.756;2022-08-25T04:56:48;99195.97;;;21.69;84.05
6387;BME280;3226;42.162;24.756;2022-08-25T04:59:19;99203.28;;;21.74;83.54
6387;BME280;3226;42.162;24.756;2022-08-25T05:01:48;99197.53;;;21.84;82.46
6387;BME280;3226;42.162;24.756;2022-08-25T05:04:21;99186.06;;;21.83;81.54
6387;BME280;3226;42.162;24.756;2022-08-25T05:06:54;99185.41;;;21.88;81.88
6387;BME280;3226;42.162;24.756;2022-08-25T05:09:24;99177.22;;;21.89;80.53
6387;BME280;3226;42.162;24.756;2022-08-25T05:11:52;99189.47;;;21.97;80.57
6387;BME280;3226;42.162;24.756;2022-08-25T05:14:20;99185.13;;;22.03;80.19
6387;BME280;3226;42.162;24.756;2022-08-25T05:16:52;99190.59;;;22.15;79.55
6387;BME280;3226;42.162;24.756;2022-08-25T05:19:20;99193.69;;;22.18;79.51
6387;BME280;3226;42.162;24.756;2022-08-25T05:21:50;99181.41;;;22.10;79.56
6387;BME280;3226;42.162;24.756;2022-08-25T05:24:18;99191.53;;;22.27;78.96
6387;BME280;3226;42.162;24.756;2022-08-25T05:26:47;99194.84;;;22.29;78.40
6387;BME280;3226;42.162;24.756;2022-08-25T05:29:16;99192.50;;;22.46;78.41
6387;BME280;3226;42.162;24.756;2022-08-25T05:31:45;99192.66;;;22.51;77.67
6387;BME280;3226;42.162;24.756;2022-08-25T05:34:17;99177.09;;;22.48;77.82
6387;BME280;3226;42.162;24.756;2022-08-25T05:36:45;99197.88;;;22.65;78.05
6387;BME280;3226;42.162;24.756;2022-08-25T05:39:13;99195.09;;;22.78;77.03
6387;BME280;3226;42.162;24.756;2022-08-25T05:41:43;99192.38;;;22.85;77.12
6387;BME280;3226;42.162;24.756;2022-08-25T05:44:12;99191.94;;;22.88;77.07
6387;BME280;3226;42.162;24.756;2022-08-25T05:46:46;99193.38;;;22.91;75.64
6387;BME280;3226;42.162;24.756;2022-08-25T05:49:14;99191.00;;;23.01;75.97
6387;BME280;3226;42.162;24.756;2022-08-25T05:51:42;99184.78;;;23.07;75.63
6387;BME280;3226;42.162;24.756;2022-08-25T05:54:10;99188.38;;;23.20;75.30
6387;BME280;3226;42.162;24.756;2022-08-25T05:56:38;99188.56;;;23.25;73.92
6387;BME280;3226;42.162;24.756;2022-08-25T05:59:06;99191.00;;;23.27;74.52
6387;BME280;3226;42.162;24.756;2022-08-25T06:01:36;99172.09;;;23.28;74.28
6387;BME280;3226;42.162;24.756;2022-08-25T06:04:21;99163.91;;;23.42;73.08
6387;BME280;3226;42.162;24.756;2022-08-25T06:06:50;99173.25;;;23.51;73.51
6387;BME280;3226;42.162;24.756;2022-08-25T06:09:19;99174.38;;;23.62;73.32
6387;BME280;3226;42.162;24.756;2022-08-25T06:11:48;99178.72;;;23.75;72.88
6387;BME280;3226;42.162;24.756;2022-08-25T06:14:20;99169.66;;;23.76;72.15
6387;BME280;3226;42.162;24.756;2022-08-25T06:16:50;99165.03;;;23.83;71.78
6387;BME280;3226;42.162;24.756;2022-08-25T06:19:19;99134.25;;;23.80;72.06
6387;BME280;3226;42.162;24.756;2022-08-25T06:21:52;99168.16;;;23.99;71.80
6387;BME280;3226;42.162;24.756;2022-08-25T06:24:21;99177.97;;;24.05;71.70
6387;BME280;3226;42.162;24.756;2022-08-25T06:26:49;99174.97;;;24.13;71.42
6387;BME280;3226;42.162;24.756;2022-08-25T06:29:18;99178.59;;;24.19;71.22
6387;BME280;3226;42.162;24.756;2022-08-25T06:31:46;99170.69;;;24.24;71.18
6387;BME280;3226;42.162;24.756;2022-08-25T06:34:17;99169.78;;;24.30;71.00
6387;BME280;3226;42.162;24.756;2022-08-25T06:36:50;99166.75;;;24.27;70.98
6387;BME280;3226;42.162;24.756;2022-08-25T06:39:18;99162.91;;;24.22;70.93
6387;BME280;3226;42.162;24.756;2022-08-25T06:41:50;99164.97;;;24.20;71.41
6387;BME280;3226;42.162;24.756;2022-08-25T06:44:18;99149.38;;;24.17;70.87
6387;BME280;3226;42.162;24.756;2022-08-25T06:46:46;99167.94;;;24.31;70.46
6387;BME280;3226;42.162;24.756;2022-08-25T06:49:14;99167.38;;;24.40;70.34
6387;BME280;3226;42.162;24.756;2022-08-25T06:51:44;99171.44;;;24.43;70.35
6387;BME280;3226;42.162;24.756;2022-08-25T06:54:12;99149.91;;;24.38;70.25
6387;BME280;3226;42.162;24.756;2022-08-25T06:56:41;99143.63;;;24.44;70.06
6387;BME280;3226;42.162;24.756;2022-08-25T06:59:09;99157.97;;;24.62;69.03
6387;BME280;3226;42.162;24.756;2022-08-25T07:01:38;99166.84;;;24.74;69.28
6387;BME280;3226;42.162;24.756;2022-08-25T07:04:08;99153.66;;;24.73;68.81
6387;BME280;3226;42.162;24.756;2022-08-25T07:06:39;99162.75;;;24.83;69.12
6387;BME280;3226;42.162;24.756;2022-08-25T07:09:10;99156.16;;;24.98;68.49
6387;BME280;3226;42.162;24.756;2022-08-25T07:11:39;99146.69;;;24.95;68.82
6387;BME280;3226;42.162;24.756;2022-08-25T07:14:09;99137.63;;;24.96;68.13
6387;BME280;3226;42.162;24.756;2022-08-25T07:16:38;99150.63;;;25.17;67.67
6387;BME280;3226;42.162;24.756;2022-08-25T07:19:11;99145.03;;;25.30;67.63
6387;BME280;3226;42.162;24.756;2022-08-25T07:21:41;99127.19;;;25.24;67.30
6387;BME280;3226;42.162;24.756;2022-08-25T07:24:13;99137.00;;;25.30;66.86
6387;BME280;3226;42.162;24.756;2022-08-25T07:26:42;99128.97;;;25.30;66.71
6387;BME280;3226;42.162;24.756;2022-08-25T07:29:15;99146.38;;;25.45;66.34
6387;BME280;3226;42.162;24.756;2022-08-25T07:31:43;99145.13;;;25.47;66.39
6387;BME280;3226;42.162;24.756;2022-08-25T07:34:12;99138.09;;;25.58;66.61
6387;BME280;3226;42.162;24.756;2022-08-25T07:36:57;99136.84;;;25.49;65.44
6387;BME280;3226;42.162;24.756;2022-08-25T07:39:27;99145.56;;;25.56;65.85
6387;BME280;3226;42.162;24.756;2022-08-25T07:41:55;99134.13;;;25.61;65.10
6387;BME280;3226;42.162;24.756;2022-08-25T07:44:25;99146.53;;;25.79;65.39
6387;BME280;3226;42.162;24.756;2022-08-25T07:46:53;99150.94;;;25.85;64.24
6387;BME280;3226;42.162;24.756;2022-08-25T07:49:24;99150.44;;;25.88;64.90
6387;BME280;3226;42.162;24.756;2022-08-25T07:52:02;99147.38;;;25.96;64.30
6387;BME280;3226;42.162;24.756;2022-08-25T07:54:34;99153.38;;;26.16;64.09
6387;BME280;3226;42.162;24.756;2022-08-25T07:57:04;99148.34;;;26.19;63.81
6387;BME280;3226;42.162;24.756;2022-08-25T07:59:33;99147.94;;;26.27;64.06
6387;BME280;3226;42.162;24.756;2022-08-25T08:02:06;99142.28;;;26.41;63.50
6387;BME280;3226;42.162;24.756;2022-08-25T08:04:46;99149.97;;;26.54;63.16
6387;BME280;3226;42.162;24.756;2022-08-25T08:07:17;99157.63;;;26.63;62.96
6387;BME280;3226;42.162;24.756;2022-08-25T08:09:47;99157.69;;;26.68;61.38
6387;BME280;3226;42.162;24.756;2022-08-25T08:12:37;99155.09;;;26.73;61.53
6387;BME280;3226;42.162;24.756;2022-08-25T08:15:06;99153.00;;;26.75;61.31
6387;BME280;3226;42.162;24.756;2022-08-25T08:17:36;99147.19;;;26.83;60.45
6387;BME280;3226;42.162;24.756;2022-08-25T08:20:06;99151.09;;;26.93;60.92
6387;BME280;3226;42.162;24.756;2022-08-25T08:22:35;99156.81;;;26.96;60.51
6387;BME280;3226;42.162;24.756;2022-08-25T08:25:07;99148.41;;;26.93;59.10
6387;BME280;3226;42.162;24.756;2022-08-25T08:27:39;99148.13;;;26.89;58.87
6387;BME280;3226;42.162;24.756;2022-08-25T08:30:09;99160.06;;;26.98;57.85
6387;BME280;3226;42.162;24.756;2022-08-25T08:32:38;99159.97;;;27.10;58.07
6387;BME280;3226;42.162;24.756;2022-08-25T08:35:26;99140.38;;;27.15;57.82
6387;BME280;3226;42.162;24.756;2022-08-25T08:37:54;99151.56;;;27.29;57.94
6387;BME280;3226;42.162;24.756;2022-08-25T08:40:24;99150.84;;;27.34;57.02
6387;BME280;3226;42.162;24.756;2022-08-25T08:43:02;99155.03;;;27.47;56.75
6387;BME280;3226;42.162;24.756;2022-08-25T08:45:47;99153.78;;;27.54;55.73
6387;BME280;3226;42.162;24.756;2022-08-25T08:48:37;99147.53;;;27.49;54.71
6387;BME280;3226;42.162;24.756;2022-08-25T08:51:16;99144.00;;;27.48;55.50
6387;BME280;3226;42.162;24.756;2022-08-25T08:53:53;99148.16;;;27.56;56.05
6387;BME280;3226;42.162;24.756;2022-08-25T08:56:28;99138.59;;;27.65;55.97
6387;BME280;3226;42.162;24.756;2022-08-25T08:58:59;99152.16;;;27.76;55.60
6387;BME280;3226;42.162;24.756;2022-08-25T09:01:35;99152.72;;;27.78;53.49
6387;BME280;3226;42.162;24.756;2022-08-25T09:04:10;99153.56;;;27.83;52.66
6387;BME280;3226;42.162;24.756;2022-08-25T09:06:42;99158.69;;;27.85;53.12
6387;BME280;3226;42.162;24.756;2022-08-25T09:09:12;99157.38;;;27.88;53.99
6387;BME280;3226;42.162;24.756;2022-08-25T09:11:56;99152.25;;;27.86;53.60
6387;BME280;3226;42.162;24.756;2022-08-25T09:14:46;99153.78;;;28.04;54.00
6387;BME280;3226;42.162;24.756;2022-08-25T09:17:31;99133.34;;;28.08;53.48
6387;BME280;3226;42.162;24.756;2022-08-25T09:23:06;99147.31;;;28.33;52.42
6387;BME280;3226;42.162;24.756;2022-08-25T09:25:43;99142.44;;;28.30;51.76
6387;BME280;3226;42.162;24.756;2022-08-25T09:28:24;99141.41;;;28.36;50.43
6387;BME280;3226;42.162;24.756;2022-08-25T09:30:58;99137.38;;;28.33;50.32
6387;BME280;3226;42.162;24.756;2022-08-25T09:33:28;99135.47;;;28.34;50.03
6387;BME280;3226;42.162;24.756;2022-08-25T09:35:59;99133.84;;;28.33;48.91
6387;BME280;3226;42.162;24.756;2022-08-25T09:38:31;99132.66;;;28.18;48.42
6387;BME280;3226;42.162;24.756;2022-08-25T09:41:00;99122.00;;;28.34;49.04
6387;BME280;3226;42.162;24.756;2022-08-25T09:43:32;99108.00;;;28.32;48.96
6387;BME280;3226;42.162;24.756;2022-08-25T09:46:08;99120.09;;;28.67;48.71
6387;BME280;3226;42.162;24.756;2022-08-25T09:48:43;99115.94;;;28.87;47.41
6387;BME280;3226;42.162;24.756;2022-08-25T09:51:19;99112.47;;;28.96;46.84
6387;BME280;3226;42.162;24.756;2022-08-25T09:53:52;99110.56;;;28.92;46.57
6387;BME280;3226;42.162;24.756;2022-08-25T09:56:22;99107.34;;;28.52;45.17
6387;BME280;3226;42.162;24.756;2022-08-25T09:58:54;99103.31;;;28.54;45.99
6387;BME280;3226;42.162;24.756;2022-08-25T10:01:28;99092.38;;;28.71;45.78
6387;BME280;3226;42.162;24.756;2022-08-25T10:04:02;99094.56;;;28.75;45.57
6387;BME280;3226;42.162;24.756;2022-08-25T10:06:34;99090.09;;;28.91;45.63
6387;BME280;3226;42.162;24.756;2022-08-25T10:09:06;99088.81;;;29.09;45.58
6387;BME280;3226;42.162;24.756;2022-08-25T10:11:37;99085.91;;;29.26;45.60
6387;BME280;3226;42.162;24.756;2022-08-25T10:14:18;99082.16;;;29.27;44.22
6387;BME280;3226;42.162;24.756;2022-08-25T10:16:47;99080.25;;;29.33;44.80
6387;BME280;3226;42.162;24.756;2022-08-25T10:19:23;99086.91;;;29.04;44.65
6387;BME280;3226;42.162;24.756;2022-08-25T10:22:04;99079.63;;;28.99;44.63
6387;BME280;3226;42.162;24.756;2022-08-25T10:24:33;99079.34;;;29.01;44.76
6387;BME280;3226;42.162;24.756;2022-08-25T10:27:08;99075.06;;;29.05;45.67
6387;BME280;3226;42.162;24.756;2022-08-25T10:30:01;99078.69;;;28.78;44.69
6387;BME280;3226;42.162;24.756;2022-08-25T10:32:39;99072.81;;;28.43;45.04
6387;BME280;3226;42.162;24.756;2022-08-25T10:35:12;99054.22;;;28.42;45.57
6387;BME280;3226;42.162;24.756;2022-08-25T10:37:48;99067.84;;;28.68;45.26
6387;BME280;3226;42.162;24.756;2022-08-25T10:40:22;99065.84;;;28.91;44.69
6387;BME280;3226;42.162;24.756;2022-08-25T10:43:01;99060.25;;;29.13;44.84
6387;BME280;3226;42.162;24.756;2022-08-25T10:45:39;99045.75;;;29.29;44.62
6387;BME280;3226;42.162;24.756;2022-08-25T10:48:19;99043.91;;;29.46;45.11
6387;BME280;3226;42.162;24.756;2022-08-25T10:50:52;99042.09;;;29.72;44.65
6387;BME280;3226;42.162;24.756;2022-08-25T10:53:27;99045.56;;;29.78;43.14
6387;BME280;3226;42.162;24.756;2022-08-25T10:56:04;99045.81;;;29.40;42.57
6387;BME280;3226;42.162;24.756;2022-08-25T10:59:00;99040.56;;;29.12;41.88
6387;BME280;3226;42.162;24.756;2022-08-25T11:01:47;99041.59;;;28.91;42.86
6387;BME280;3226;42.162;24.756;2022-08-25T11:04:23;99040.94;;;28.73;42.91
6387;BME280;3226;42.162;24.756;2022-08-25T11:06:59;99044.22;;;28.80;43.23
6387;BME280;3226;42.162;24.756;2022-08-25T11:09:43;99048.53;;;28.81;43.48
6387;BME280;3226;42.162;24.756;2022-08-25T11:12:18;99043.25;;;29.07;44.48
6387;BME280;3226;42.162;24.756;2022-08-25T11:14:50;99042.47;;;29.12;44.11
6387;BME280;3226;42.162;24.756;2022-08-25T11:17:24;99030.63;;;29.13;42.52
6387;BME280;3226;42.162;24.756;2022-08-25T11:19:56;99045.41;;;29.10;42.11
6387;BME280;3226;42.162;24.756;2022-08-25T11:22:31;99043.31;;;29.23;41.57
6387;BME280;3226;42.162;24.756;2022-08-25T11:25:08;99038.00;;;29.49;41.04
6387;BME280;3226;42.162;24.756;2022-08-25T11:27:44;99034.25;;;29.65;42.78
6387;BME280;3226;42.162;24.756;2022-08-25T11:30:15;99029.09;;;29.64;41.68
6387;BME280;3226;42.162;24.756;2022-08-25T11:32:49;99024.53;;;29.80;41.64
6387;BME280;3226;42.162;24.756;2022-08-25T11:35:24;99028.09;;;30.06;41.66
6387;BME280;3226;42.162;24.756;2022-08-25T11:38:06;99010.75;;;29.97;43.14
6387;BME280;3226;42.162;24.756;2022-08-25T11:40:50;99034.25;;;30.33;42.23
6387;BME280;3226;42.162;24.756;2022-08-25T11:43:31;99019.06;;;30.47;41.04
6387;BME280;3226;42.162;24.756;2022-08-25T11:46:17;99017.44;;;30.62;40.17
6387;BME280;3226;42.162;24.756;2022-08-25T11:49:02;99024.16;;;30.69;40.03
6387;BME280;3226;42.162;24.756;2022-08-25T11:51:41;99019.59;;;30.60;39.42
6387;BME280;3226;42.162;24.756;2022-08-25T11:54:19;99008.00;;;30.49;38.94
6387;BME280;3226;42.162;24.756;2022-08-25T11:56:58;99016.13;;;30.38;39.68
6387;BME280;3226;42.162;24.756;2022-08-25T12:00:01;99014.00;;;30.20;39.58
6387;BME280;3226;42.162;24.756;2022-08-25T12:02:32;99013.50;;;30.12;39.19
6387;BME280;3226;42.162;24.756;2022-08-25T12:05:04;99016.44;;;29.90;39.20
6387;BME280;3226;42.162;24.756;2022-08-25T12:07:58;99014.28;;;30.08;39.09
6387;BME280;3226;42.162;24.756;2022-08-25T12:10:56;99017.25;;;29.80;39.36
6387;BME280;3226;42.162;24.756;2022-08-25T12:16:38;99013.75;;;29.54;39.25
6387;BME280;3226;42.162;24.756;2022-08-25T12:19:46;99002.94;;;29.85;39.65
6387;BME280;3226;42.162;24.756;2022-08-25T12:22:42;98998.91;;;29.77;40.51
6387;BME280;3226;42.162;24.756;2022-08-25T12:25:38;98996.75;;;29.74;41.79
6387;BME280;3226;42.162;24.756;2022-08-25T12:28:36;99003.22;;;29.68;41.71
6387;BME280;3226;42.162;24.756;2022-08-25T12:31:18;99004.03;;;29.58;40.28
6387;BME280;3226;42.162;24.756;2022-08-25T12:34:05;99006.16;;;29.87;40.46
6387;BME280;3226;42.162;24.756;2022-08-25T12:36:38;99001.63;;;29.77;39.64
6387;BME280;3226;42.162;24.756;2022-08-25T12:39:19;98991.88;;;29.61;39.68
6387;BME280;3226;42.162;24.756;2022-08-25T12:41:55;98994.31;;;29.72;39.12
6387;BME280;3226;42.162;24.756;2022-08-25T12:44:41;98986.75;;;29.95;39.07
6387;BME280;3226;42.162;24.756;2022-08-25T12:47:27;98991.88;;;30.02;38.74
6387;BME280;3226;42.162;24.756;2022-08-25T12:50:26;98982.41;;;30.20;38.20
6387;BME280;3226;42.162;24.756;2022-08-25T12:53:00;98982.16;;;30.17;39.29
6387;BME280;3226;42.162;24.756;2022-08-25T12:55:36;98982.72;;;30.03;38.53
6387;BME280;3226;42.162;24.756;2022-08-25T12:58:05;98979.75;;;29.79;38.62
6387;BME280;3226;42.162;24.756;2022-08-25T13:00:43;98982.44;;;29.74;38.86
6387;BME280;3226;42.162;24.756;2022-08-25T13:03:29;98981.91;;;30.03;39.53
6387;BME280;3226;42.162;24.756;2022-08-25T13:06:19;98988.41;;;30.02;40.59
6387;BME280;3226;42.162;24.756;2022-08-25T13:12:21;98992.16;;;29.75;41.13
6387;BME280;3226;42.162;24.756;2022-08-25T13:14:52;98968.69;;;29.60;40.37
6387;BME280;3226;42.162;24.756;2022-08-25T13:17:25;98981.91;;;29.51;40.68
6387;BME280;3226;42.162;24.756;2022-08-25T13:20:12;98982.97;;;29.45;40.33
6387;BME280;3226;42.162;24.756;2022-08-25T13:22:43;98986.19;;;29.36;40.10
6387;BME280;3226;42.162;24.756;2022-08-25T13:25:17;98980.28;;;29.50;41.16
6387;BME280;3226;42.162;24.756;2022-08-25T13:28:03;98984.88;;;29.54;42.05
6387;BME280;3226;42.162;24.756;2022-08-25T13:30:36;98993.97;;;29.22;41.36
6387;BME280;3226;42.162;24.756;2022-08-25T13:33:15;98997.81;;;28.63;45.26
6387;BME280;3226;42.162;24.756;2022-08-25T13:35:47;99000.81;;;28.18;48.73
6387;BME280;3226;42.162;24.756;2022-08-25T13:38:18;99009.50;;;27.65;50.84
6387;BME280;3226;42.162;24.756;2022-08-25T13:40:45;98997.03;;;27.26;53.01
6387;BME280;3226;42.162;24.756;2022-08-25T13:43:15;98996.09;;;27.16;53.03
6387;BME280;3226;42.162;24.756;2022-08-25T13:45:53;98984.53;;;27.15;53.78
6387;BME280;3226;42.162;24.756;2022-08-25T13:48:32;98996.38;;;27.41;53.85
6387;BME280;3226;42.162;24.756;2022-08-25T13:51:14;98995.31;;;27.42;54.08
6387;BME280;3226;42.162;24.756;2022-08-25T13:53:53;98989.66;;;27.44;54.86